createdAt,value
2018-07-09T00:00:11.475Z,0
2018-07-09T00:01:13.517Z,0
2018-07-09T00:02:16.153Z,0
2018-07-09T00:03:18.197Z,0
2018-07-09T00:04:20.222Z,0
2018-07-09T00:05:22.266Z,0
2018-07-09T00:06:24.305Z,0
2018-07-09T00:07:26.346Z,0
2018-07-09T00:08:28.389Z,0
2018-07-09T00:09:30.421Z,0
2018-07-09T00:10:32.859Z,0
2018-07-09T00:11:34.898Z,0
2018-07-09T00:12:36.936Z,0
2018-07-09T00:13:39.265Z,0
2018-07-09T00:14:41.309Z,0
2018-07-09T00:15:43.742Z,0
2018-07-09T00:16:45.783Z,0
2018-07-09T00:17:47.821Z,0
2018-07-09T00:18:49.862Z,0
2018-07-09T00:19:51.900Z,0
2018-07-09T00:20:53.934Z,0
2018-07-09T00:21:55.964Z,0
2018-07-09T00:22:58.012Z,0
2018-07-09T00:24:00.044Z,0
2018-07-09T00:25:02.799Z,0
2018-07-09T00:26:05.126Z,0
2018-07-09T00:27:07.159Z,0
2018-07-09T00:28:09.207Z,0
2018-07-09T00:29:11.239Z,0
2018-07-09T00:30:13.280Z,0
2018-07-09T00:31:15.323Z,0
2018-07-09T00:32:17.384Z,0
2018-07-09T00:33:19.785Z,0
2018-07-09T00:34:21.821Z,0
2018-07-09T00:35:23.879Z,0
2018-07-09T00:36:26.286Z,0
2018-07-09T00:37:28.323Z,0
2018-07-09T00:38:30.367Z,0
2018-07-09T00:39:32.406Z,0
2018-07-09T00:40:34.451Z,0
2018-07-09T00:41:36.775Z,0
2018-07-09T00:42:38.821Z,0
2018-07-09T00:43:40.859Z,0
2018-07-09T00:44:42.886Z,0
2018-07-09T00:45:45.603Z,0
2018-07-09T00:46:47.636Z,0
2018-07-09T00:47:49.673Z,0
2018-07-09T00:48:51.706Z,0
2018-07-09T00:49:53.745Z,0
2018-07-09T00:50:55.832Z,0
2018-07-09T00:51:57.822Z,0
2018-07-09T00:52:59.860Z,0
2018-07-09T00:54:02.177Z,0
2018-07-09T00:55:04.214Z,0
2018-07-09T00:56:06.262Z,0
2018-07-09T00:57:08.300Z,0
2018-07-09T00:58:10.390Z,0
2018-07-09T00:59:12.423Z,0
2018-07-09T01:00:14.458Z,0
2018-07-09T01:01:16.492Z,0
2018-07-09T01:02:18.531Z,0
2018-07-09T01:03:20.586Z,0
2018-07-09T01:04:22.623Z,0
2018-07-09T01:05:25.037Z,0
2018-07-09T01:06:27.466Z,0
2018-07-09T01:07:29.498Z,0
2018-07-09T01:08:31.535Z,0
2018-07-09T01:09:33.565Z,0
2018-07-09T01:10:35.614Z,0
2018-07-09T01:11:37.650Z,0
2018-07-09T01:12:39.686Z,0
2018-07-09T01:13:41.726Z,0
2018-07-09T01:14:43.763Z,0
2018-07-09T01:15:46.196Z,0
2018-07-09T01:16:48.226Z,0
2018-07-09T01:17:50.256Z,0
2018-07-09T01:18:52.581Z,0
2018-07-09T01:19:54.615Z,0
2018-07-09T01:20:56.661Z,0
2018-07-09T01:21:58.980Z,0
2018-07-09T01:23:01.309Z,0
2018-07-09T01:24:03.920Z,0
2018-07-09T01:25:05.947Z,0
2018-07-09T01:26:08.272Z,0
2018-07-09T01:27:10.603Z,0
2018-07-09T01:28:12.920Z,0
2018-07-09T01:29:14.959Z,0
2018-07-09T01:30:16.995Z,0
2018-07-09T01:31:19.033Z,0
2018-07-09T01:32:21.075Z,0
2018-07-09T01:33:23.112Z,0
2018-07-09T01:34:25.141Z,0
2018-07-09T01:35:27.478Z,0
2018-07-09T01:36:30.185Z,0
2018-07-09T01:37:32.227Z,0
2018-07-09T01:38:34.255Z,0
2018-07-09T01:39:36.297Z,0
2018-07-09T01:40:38.641Z,0
2018-07-09T01:41:41.364Z,0
2018-07-09T01:42:43.398Z,0
2018-07-09T01:43:45.446Z,0
2018-07-09T01:44:47.472Z,0
2018-07-09T01:45:49.503Z,0
2018-07-09T01:46:51.537Z,0
2018-07-09T01:47:53.573Z,0
2018-07-09T01:48:55.615Z,0
2018-07-09T01:49:57.644Z,0
2018-07-09T01:51:00.081Z,0
2018-07-09T01:52:02.117Z,0
2018-07-09T01:53:04.149Z,0
2018-07-09T01:54:06.471Z,0
2018-07-09T01:55:08.500Z,0
2018-07-09T01:56:10.536Z,0
2018-07-09T01:57:12.574Z,0
2018-07-09T01:58:14.616Z,0
2018-07-09T01:59:16.656Z,0
2018-07-09T02:00:18.684Z,0
2018-07-09T02:01:21.016Z,0
2018-07-09T02:02:23.060Z,0
2018-07-09T02:03:25.686Z,0
2018-07-09T02:04:27.720Z,0
2018-07-09T02:05:29.760Z,0
2018-07-09T02:06:32.078Z,0
2018-07-09T02:07:34.484Z,0
2018-07-09T02:08:36.527Z,0
2018-07-09T02:09:38.566Z,0
2018-07-09T02:10:40.886Z,0
2018-07-09T02:11:42.924Z,0
2018-07-09T02:12:44.960Z,0
2018-07-09T02:13:47.000Z,0
2018-07-09T02:14:49.027Z,0
2018-07-09T02:15:51.062Z,0
2018-07-09T02:16:53.109Z,0
2018-07-09T02:17:55.143Z,0
2018-07-09T02:18:57.179Z,0
2018-07-09T02:19:59.235Z,0
2018-07-09T02:21:01.568Z,0
2018-07-09T02:22:03.609Z,0
2018-07-09T02:23:05.633Z,0
2018-07-09T02:24:07.679Z,0
2018-07-09T02:25:09.714Z,0
2018-07-09T02:26:11.746Z,0
2018-07-09T02:27:13.787Z,0
2018-07-09T02:28:15.847Z,0
2018-07-09T02:29:18.256Z,0
2018-07-09T02:30:20.304Z,0
2018-07-09T02:31:22.343Z,0
2018-07-09T02:32:24.666Z,0
2018-07-09T02:33:27.074Z,0
2018-07-09T02:34:29.162Z,0
2018-07-09T02:35:31.158Z,0
2018-07-09T02:36:33.190Z,0
2018-07-09T02:37:35.227Z,0
2018-07-09T02:38:37.550Z,0
2018-07-09T02:39:40.953Z,0
2018-07-09T02:40:43.278Z,0
2018-07-09T02:41:45.995Z,0
2018-07-09T02:42:48.787Z,0
2018-07-09T02:43:51.116Z,0
2018-07-09T02:44:53.431Z,0
2018-07-09T02:45:56.049Z,0
2018-07-09T02:46:58.775Z,0
2018-07-09T02:48:00.802Z,0
2018-07-09T02:49:03.258Z,0
2018-07-09T02:50:05.285Z,1
2018-07-09T02:51:07.597Z,1
2018-07-09T02:52:09.934Z,1
2018-07-09T02:53:11.971Z,1
2018-07-09T02:54:14.008Z,1
2018-07-09T02:55:16.043Z,1
2018-07-09T02:56:18.759Z,1
2018-07-09T02:57:21.091Z,1
2018-07-09T02:58:23.427Z,1
2018-07-09T02:59:25.549Z,1
2018-07-09T03:00:27.806Z,2
2018-07-09T03:01:30.439Z,2
2018-07-09T03:02:32.473Z,2
2018-07-09T03:03:34.511Z,2
2018-07-09T03:04:36.545Z,2
2018-07-09T03:05:39.259Z,2
2018-07-09T03:06:41.284Z,2
2018-07-09T03:07:43.327Z,3
2018-07-09T03:08:45.358Z,3
2018-07-09T03:09:47.666Z,3
2018-07-09T03:10:49.702Z,3
2018-07-09T03:11:52.016Z,3
2018-07-09T03:12:54.453Z,4
2018-07-09T03:13:56.473Z,4
2018-07-09T03:14:58.507Z,4
2018-07-09T03:16:00.556Z,4
2018-07-09T03:17:02.871Z,4
2018-07-09T03:18:05.295Z,5
2018-07-09T03:19:07.411Z,5
2018-07-09T03:20:09.645Z,5
2018-07-09T03:21:11.683Z,5
2018-07-09T03:22:13.725Z,6
2018-07-09T03:23:16.039Z,6
2018-07-09T03:24:18.360Z,6
2018-07-09T03:25:20.790Z,6
2018-07-09T03:26:22.827Z,7
2018-07-09T03:27:24.862Z,7
2018-07-09T03:28:26.891Z,7
2018-07-09T03:29:28.983Z,8
2018-07-09T03:30:30.981Z,8
2018-07-09T03:31:33.334Z,8
2018-07-09T03:32:35.338Z,9
2018-07-09T03:33:37.653Z,9
2018-07-09T03:34:40.251Z,9
2018-07-09T03:35:42.570Z,10
2018-07-09T03:36:44.614Z,10
2018-07-09T03:37:46.655Z,10
2018-07-09T03:38:48.696Z,10
2018-07-09T03:39:50.728Z,10
2018-07-09T03:40:52.765Z,11
2018-07-09T03:41:55.364Z,11
2018-07-09T03:42:57.391Z,12
2018-07-09T03:43:59.424Z,12
2018-07-09T03:45:01.460Z,12
2018-07-09T03:46:03.780Z,13
2018-07-09T03:47:05.807Z,13
2018-07-09T03:48:07.844Z,14
2018-07-09T03:49:09.873Z,14
2018-07-09T03:50:12.184Z,15
2018-07-09T03:51:14.221Z,15
2018-07-09T03:52:16.257Z,16
2018-07-09T03:53:18.676Z,16
2018-07-09T03:54:20.716Z,16
2018-07-09T03:55:23.058Z,17
2018-07-09T03:56:25.103Z,17
2018-07-09T03:57:27.130Z,18
2018-07-09T03:58:29.159Z,18
2018-07-09T03:59:31.194Z,18
2018-07-09T04:00:33.229Z,19
2018-07-09T04:01:35.264Z,19
2018-07-09T04:02:37.308Z,19
2018-07-09T04:03:39.329Z,19
2018-07-09T04:04:41.366Z,19
2018-07-09T04:05:43.408Z,18
2018-07-09T04:06:45.470Z,18
2018-07-09T04:07:47.517Z,19
2018-07-09T04:08:49.555Z,18
2018-07-09T04:09:51.591Z,18
2018-07-09T04:10:53.627Z,19
2018-07-09T04:11:55.663Z,19
2018-07-09T04:12:57.709Z,20
2018-07-09T04:13:59.748Z,20
2018-07-09T04:15:01.785Z,20
2018-07-09T04:16:03.823Z,21
2018-07-09T04:17:05.862Z,21
2018-07-09T04:18:07.892Z,21
2018-07-09T04:19:10.316Z,21
2018-07-09T04:20:12.348Z,21
2018-07-09T04:21:14.389Z,22
2018-07-09T04:22:16.421Z,22
2018-07-09T04:23:18.457Z,23
2018-07-09T04:24:20.883Z,23
2018-07-09T04:25:22.926Z,22
2018-07-09T04:26:25.265Z,22
2018-07-09T04:27:27.580Z,22
2018-07-09T04:28:29.614Z,22
2018-07-09T04:29:32.040Z,22
2018-07-09T04:30:34.071Z,22
2018-07-09T04:31:36.116Z,21
2018-07-09T04:32:38.153Z,20
2018-07-09T04:33:40.489Z,18
2018-07-09T04:34:42.528Z,19
2018-07-09T04:35:44.848Z,18
2018-07-09T04:36:46.880Z,17
2018-07-09T04:37:48.952Z,17
2018-07-09T04:38:50.955Z,16
2018-07-09T04:39:52.990Z,18
2018-07-09T04:40:55.021Z,19
2018-07-09T04:41:57.056Z,21
2018-07-09T04:42:59.477Z,26
2018-07-09T04:44:01.513Z,26
2018-07-09T04:45:03.930Z,27
2018-07-09T04:46:05.976Z,28
2018-07-09T04:47:08.015Z,29
2018-07-09T04:48:10.337Z,30
2018-07-09T04:49:12.375Z,30
2018-07-09T04:50:14.414Z,30
2018-07-09T04:51:16.458Z,30
2018-07-09T04:52:18.774Z,31
2018-07-09T04:53:20.801Z,31
2018-07-09T04:54:22.843Z,31
2018-07-09T04:55:24.864Z,31
2018-07-09T04:56:26.905Z,31
2018-07-09T04:57:28.944Z,32
2018-07-09T04:58:30.980Z,33
2018-07-09T04:59:33.291Z,34
2018-07-09T05:00:35.328Z,33
2018-07-09T05:01:37.745Z,33
2018-07-09T05:02:39.779Z,33
2018-07-09T05:03:41.810Z,33
2018-07-09T05:04:43.853Z,33
2018-07-09T05:05:46.436Z,32
2018-07-09T05:06:48.474Z,32
2018-07-09T05:07:50.505Z,32
2018-07-09T05:08:52.835Z,31
2018-07-09T05:09:54.873Z,30
2018-07-09T05:10:56.907Z,28
2018-07-09T05:11:59.340Z,26
2018-07-09T05:13:01.776Z,25
2018-07-09T05:14:04.043Z,23
2018-07-09T05:15:06.081Z,22
2018-07-09T05:16:08.507Z,20
2018-07-09T05:17:10.533Z,19
2018-07-09T05:18:12.578Z,19
2018-07-09T05:19:14.908Z,19
2018-07-09T05:20:17.234Z,19
2018-07-09T05:21:19.563Z,19
2018-07-09T05:22:21.596Z,19
2018-07-09T05:23:24.028Z,19
2018-07-09T05:24:26.346Z,19
2018-07-09T05:25:28.379Z,19
2018-07-09T05:26:30.724Z,19
2018-07-09T05:27:32.756Z,20
2018-07-09T05:28:34.785Z,19
2018-07-09T05:29:36.818Z,20
2018-07-09T05:30:38.851Z,20
2018-07-09T05:31:40.888Z,20
2018-07-09T05:32:42.926Z,21
2018-07-09T05:33:44.961Z,19
2018-07-09T05:34:47.383Z,21
2018-07-09T05:35:49.700Z,21
2018-07-09T05:36:51.739Z,21
2018-07-09T05:37:53.775Z,21
2018-07-09T05:38:55.815Z,22
2018-07-09T05:39:57.885Z,23
2018-07-09T05:41:00.512Z,20
2018-07-09T05:42:02.937Z,20
2018-07-09T05:43:04.971Z,24
2018-07-09T05:44:07.290Z,29
2018-07-09T05:45:09.327Z,30
2018-07-09T05:46:11.662Z,31
2018-07-09T05:47:13.692Z,39
2018-07-09T05:48:15.728Z,42
2018-07-09T05:49:17.765Z,40
2018-07-09T05:50:19.808Z,41
2018-07-09T05:51:21.845Z,42
2018-07-09T05:52:23.874Z,46
2018-07-09T05:53:25.956Z,44
2018-07-09T05:54:28.237Z,49
2018-07-09T05:55:30.270Z,39
2018-07-09T05:56:32.596Z,32
2018-07-09T05:57:35.015Z,31
2018-07-09T05:58:37.097Z,31
2018-07-09T05:59:39.140Z,31
2018-07-09T06:00:41.551Z,39
2018-07-09T06:01:43.594Z,45
2018-07-09T06:02:46.015Z,38
2018-07-09T06:03:48.055Z,35
2018-07-09T06:04:50.093Z,42
2018-07-09T06:05:52.125Z,45
2018-07-09T06:06:54.479Z,42
2018-07-09T06:07:56.516Z,31
2018-07-09T06:08:58.540Z,28
2018-07-09T06:10:00.591Z,28
2018-07-09T06:11:02.648Z,33
2018-07-09T06:12:04.994Z,33
2018-07-09T06:13:07.332Z,34
2018-07-09T06:14:09.367Z,35
2018-07-09T06:15:11.403Z,33
2018-07-09T06:16:13.435Z,32
2018-07-09T06:17:15.856Z,31
2018-07-09T06:18:17.912Z,29
2018-07-09T06:19:20.017Z,30
2018-07-09T06:20:21.984Z,28
2018-07-09T06:21:24.027Z,26
2018-07-09T06:22:26.064Z,27
2018-07-09T06:23:28.102Z,26
2018-07-09T06:24:30.134Z,27
2018-07-09T06:25:33.085Z,28
2018-07-09T06:26:35.092Z,28
2018-07-09T06:27:37.118Z,31
2018-07-09T06:28:39.446Z,29
2018-07-09T06:29:41.484Z,31
2018-07-09T06:30:43.531Z,30
2018-07-09T06:31:45.959Z,29
2018-07-09T06:32:47.995Z,31
2018-07-09T06:33:50.036Z,31
2018-07-09T06:34:52.076Z,29
2018-07-09T06:35:54.112Z,26
2018-07-09T06:36:56.139Z,26
2018-07-09T06:37:58.475Z,29
2018-07-09T06:39:00.504Z,39
2018-07-09T06:40:02.969Z,45
2018-07-09T06:41:05.288Z,48
2018-07-09T06:42:07.333Z,43
2018-07-09T06:43:09.654Z,46
2018-07-09T06:44:12.266Z,48
2018-07-09T06:45:14.303Z,54
2018-07-09T06:46:16.342Z,61
2018-07-09T06:47:18.387Z,61
2018-07-09T06:48:21.276Z,59
2018-07-09T06:49:23.257Z,64
2018-07-09T06:50:25.682Z,62
2018-07-09T06:51:27.705Z,55
2018-07-09T06:52:30.026Z,52
2018-07-09T06:53:32.458Z,49
2018-07-09T06:54:34.503Z,51
2018-07-09T06:55:36.534Z,51
2018-07-09T06:56:38.858Z,48
2018-07-09T06:57:40.903Z,37
2018-07-09T06:58:43.241Z,47
2018-07-09T06:59:45.272Z,54
2018-07-09T07:00:47.319Z,60
2018-07-09T07:01:49.742Z,67
2018-07-09T07:02:51.781Z,74
2018-07-09T07:03:53.813Z,71
2018-07-09T07:04:55.855Z,65
2018-07-09T07:05:57.901Z,63
2018-07-09T07:06:59.944Z,65
2018-07-09T07:08:01.978Z,61
2018-07-09T07:09:04.068Z,62
2018-07-09T07:10:06.078Z,61
2018-07-09T07:11:08.702Z,61
2018-07-09T07:12:10.735Z,60
2018-07-09T07:13:12.772Z,60
2018-07-09T07:14:14.832Z,56
2018-07-09T07:15:16.860Z,57
2018-07-09T07:16:18.887Z,60
2018-07-09T07:17:20.945Z,66
2018-07-09T07:18:22.969Z,64
2018-07-09T07:19:25.009Z,68
2018-07-09T07:20:27.344Z,64
2018-07-09T07:21:29.382Z,58
2018-07-09T07:22:31.425Z,62
2018-07-09T07:23:33.468Z,67
2018-07-09T07:24:35.772Z,62
2018-07-09T07:25:38.105Z,54
2018-07-09T07:26:40.153Z,44
2018-07-09T07:27:42.198Z,39
2018-07-09T07:28:44.529Z,38
2018-07-09T07:29:46.568Z,36
2018-07-09T07:30:48.612Z,34
2018-07-09T07:31:50.641Z,32
2018-07-09T07:32:52.757Z,32
2018-07-09T07:33:54.744Z,32
2018-07-09T07:34:57.093Z,29
2018-07-09T07:35:59.132Z,28
2018-07-09T07:37:01.172Z,28
2018-07-09T07:38:03.492Z,29
2018-07-09T07:39:05.536Z,36
2018-07-09T07:40:07.874Z,38
2018-07-09T07:41:09.920Z,40
2018-07-09T07:42:11.967Z,44
2018-07-09T07:43:13.990Z,48
2018-07-09T07:44:16.034Z,44
2018-07-09T07:45:18.071Z,45
2018-07-09T07:46:20.111Z,42
2018-07-09T07:47:22.153Z,44
2018-07-09T07:48:24.182Z,47
2018-07-09T07:49:26.882Z,50
2018-07-09T07:50:29.033Z,53
2018-07-09T07:51:31.473Z,54
2018-07-09T07:52:34.182Z,64
2018-07-09T07:53:36.215Z,68
2018-07-09T07:54:38.258Z,63
2018-07-09T07:55:40.290Z,66
2018-07-09T07:56:42.328Z,64
2018-07-09T07:57:44.383Z,63
2018-07-09T07:58:46.428Z,60
2018-07-09T07:59:48.754Z,55
2018-07-09T08:00:50.803Z,52
2018-07-09T08:01:53.141Z,51
2018-07-09T08:02:56.004Z,53
2018-07-09T08:03:58.269Z,47
2018-07-09T08:05:00.306Z,41
2018-07-09T08:06:02.742Z,41
2018-07-09T08:07:04.784Z,47
2018-07-09T08:08:06.836Z,48
2018-07-09T08:09:08.869Z,45
2018-07-09T08:10:11.302Z,48
2018-07-09T08:11:13.634Z,50
2018-07-09T08:13:27.171Z,46
2018-07-09T08:14:04.461Z,53
2018-07-09T08:15:06.505Z,60
2018-07-09T08:16:08.833Z,74
2018-07-09T08:17:10.881Z,74
2018-07-09T08:18:12.920Z,72
2018-07-09T08:19:14.964Z,57
2018-07-09T08:20:16.999Z,54
2018-07-09T08:21:19.338Z,54
2018-07-09T08:22:21.392Z,58
2018-07-09T08:23:23.431Z,70
2018-07-09T08:24:25.845Z,69
2018-07-09T08:25:28.491Z,75
2018-07-09T08:26:30.360Z,74
2018-07-09T08:27:32.402Z,65
2018-07-09T08:28:34.442Z,69
2018-07-09T08:29:36.475Z,77
2018-07-09T08:30:38.811Z,74
2018-07-09T08:31:40.857Z,66
2018-07-09T08:32:42.885Z,54
2018-07-09T08:33:44.935Z,49
2018-07-09T08:34:47.274Z,42
2018-07-09T08:35:49.604Z,42
2018-07-09T08:36:51.645Z,46
2018-07-09T08:37:53.721Z,53
2018-07-09T08:38:55.742Z,61
2018-07-09T08:39:58.076Z,65
2018-07-09T08:41:00.406Z,77
2018-07-09T08:42:02.440Z,100
2018-07-09T08:43:04.763Z,100
2018-07-09T08:44:06.801Z,70
2018-07-09T08:45:09.143Z,63
2018-07-09T08:46:11.499Z,82
2018-07-09T08:47:13.539Z,96
2018-07-09T08:48:15.581Z,113
2018-07-09T08:49:18.015Z,108
2018-07-09T08:50:20.434Z,105
2018-07-09T08:51:22.758Z,150
2018-07-09T08:52:24.798Z,155
2018-07-09T08:53:26.848Z,146
2018-07-09T08:54:28.895Z,146
2018-07-09T08:55:31.216Z,138
2018-07-09T08:56:33.258Z,297
2018-07-09T08:57:35.296Z,159
2018-07-09T08:58:38.014Z,220
2018-07-09T08:59:40.056Z,483
2018-07-09T09:00:42.094Z,166
2018-07-09T09:01:44.137Z,248
2018-07-09T09:02:46.469Z,469
2018-07-09T09:03:48.560Z,365
2018-07-09T09:04:50.551Z,401
2018-07-09T09:05:52.597Z,441
2018-07-09T09:06:54.645Z,440
2018-07-09T09:07:56.690Z,350
2018-07-09T09:08:58.727Z,386
2018-07-09T09:10:01.215Z,401
2018-07-09T09:11:03.519Z,429
2018-07-09T09:12:05.550Z,491
2018-07-09T09:13:07.589Z,100
2018-07-09T09:14:09.647Z,102
2018-07-09T09:15:11.680Z,528
2018-07-09T09:16:13.720Z,510
2018-07-09T09:17:16.341Z,444
2018-07-09T09:18:18.388Z,506
2018-07-09T09:19:20.435Z,520
2018-07-09T09:20:22.469Z,287
2018-07-09T09:21:24.521Z,153
2018-07-09T09:22:26.558Z,400
2018-07-09T09:23:28.610Z,410
2018-07-09T09:24:30.655Z,345
2018-07-09T09:25:32.760Z,348
2018-07-09T09:26:34.749Z,313
2018-07-09T09:27:36.798Z,304
2018-07-09T09:28:38.830Z,335
2018-07-09T09:29:40.879Z,367
2018-07-09T09:30:42.923Z,340
2018-07-09T09:31:44.968Z,100
2018-07-09T09:32:47.011Z,103
2018-07-09T09:33:49.059Z,113
2018-07-09T09:34:51.099Z,257
2018-07-09T09:35:53.151Z,386
2018-07-09T09:36:55.472Z,433
2018-07-09T09:37:57.532Z,469
2018-07-09T09:38:59.576Z,459
2018-07-09T09:40:01.635Z,153
2018-07-09T09:41:03.682Z,138
2018-07-09T09:42:06.011Z,132
2018-07-09T09:43:08.068Z,247
2018-07-09T09:44:10.489Z,155
2018-07-09T09:45:12.542Z,152
2018-07-09T09:46:14.895Z,148
2018-07-09T09:47:16.926Z,173
2018-07-09T09:48:19.571Z,126
2018-07-09T09:49:21.660Z,559
2018-07-09T09:50:23.949Z,364
2018-07-09T09:51:26.583Z,157
2018-07-09T09:52:28.972Z,247
2018-07-09T09:53:30.982Z,134
2018-07-09T09:54:33.025Z,481
2018-07-09T09:55:35.072Z,478
2018-07-09T09:56:37.419Z,487
2018-07-09T09:57:39.772Z,496
2018-07-09T09:58:41.812Z,471
2018-07-09T09:59:43.858Z,454
2018-07-09T10:00:46.186Z,483
2018-07-09T10:01:48.221Z,472
2018-07-09T10:02:50.266Z,505
2018-07-09T10:03:52.318Z,549
2018-07-09T10:04:54.674Z,500
2018-07-09T10:05:56.721Z,565
2018-07-09T10:06:59.047Z,129
2018-07-09T10:08:01.100Z,128
2018-07-09T10:09:03.152Z,141
2018-07-09T10:10:05.189Z,177
2018-07-09T10:11:07.245Z,362
2018-07-09T10:12:09.294Z,156
2018-07-09T10:13:11.353Z,531
2018-07-09T10:14:13.398Z,527
2018-07-09T10:15:15.444Z,555
2018-07-09T10:16:17.503Z,377
2018-07-09T10:17:19.554Z,541
2018-07-09T10:18:21.879Z,533
2018-07-09T10:19:23.930Z,188
2018-07-09T10:20:25.978Z,460
2018-07-09T10:21:28.035Z,508
2018-07-09T10:22:30.086Z,507
2018-07-09T10:23:32.187Z,500
2018-07-09T10:24:34.188Z,393
2018-07-09T10:25:36.241Z,153
2018-07-09T10:26:38.281Z,183
2018-07-09T10:27:40.334Z,146
2018-07-09T10:28:42.376Z,116
2018-07-09T10:29:44.422Z,116
2018-07-09T10:30:46.477Z,513
2018-07-09T10:31:48.518Z,148
2018-07-09T10:32:50.853Z,511
2018-07-09T10:33:52.907Z,363
2018-07-09T10:34:54.942Z,518
2018-07-09T10:35:56.996Z,536
2018-07-09T10:36:59.049Z,552
2018-07-09T10:38:01.102Z,551
2018-07-09T10:39:03.151Z,544
2018-07-09T10:40:05.214Z,592
2018-07-09T10:41:07.555Z,167
2018-07-09T10:42:09.599Z,144
2018-07-09T10:43:11.662Z,153
2018-07-09T10:44:13.709Z,508
2018-07-09T10:45:16.143Z,151
2018-07-09T10:46:18.576Z,135
2018-07-09T10:47:20.627Z,148
2018-07-09T10:48:23.056Z,484
2018-07-09T10:49:25.127Z,461
2018-07-09T10:50:27.152Z,196
2018-07-09T10:51:29.498Z,175
2018-07-09T10:52:31.549Z,230
2018-07-09T10:53:33.600Z,130
2018-07-09T10:54:35.648Z,116
2018-07-09T10:55:37.700Z,124
2018-07-09T10:56:39.742Z,140
2018-07-09T10:57:41.800Z,171
2018-07-09T10:58:43.840Z,149
2018-07-09T10:59:45.891Z,255
2018-07-09T11:00:48.013Z,161
2018-07-09T11:01:50.296Z,272
2018-07-09T11:02:52.337Z,165
2018-07-09T11:03:54.679Z,152
2018-07-09T11:04:57.031Z,118
2018-07-09T11:05:59.467Z,106
2018-07-09T11:07:01.524Z,119
2018-07-09T11:08:03.858Z,180
2018-07-09T11:09:05.903Z,143
2018-07-09T11:10:07.952Z,161
2018-07-09T11:11:10.286Z,100
2018-07-09T11:12:12.620Z,82
2018-07-09T11:13:14.673Z,65
2018-07-09T11:14:16.720Z,55
2018-07-09T11:15:18.784Z,51
2018-07-09T11:16:21.310Z,50
2018-07-09T11:17:24.046Z,54
2018-07-09T11:18:26.093Z,68
2018-07-09T11:19:28.143Z,103
2018-07-09T11:20:30.192Z,204
2018-07-09T11:21:32.246Z,329
2018-07-09T11:22:34.279Z,194
2018-07-09T11:23:36.333Z,163
2018-07-09T11:24:38.373Z,142
2018-07-09T11:25:40.831Z,161
2018-07-09T11:26:42.874Z,464
2018-07-09T11:27:44.924Z,433
2018-07-09T11:28:46.972Z,449
2018-07-09T11:29:49.021Z,142
2018-07-09T11:30:51.348Z,122
2018-07-09T11:31:53.717Z,102
2018-07-09T11:32:55.770Z,90
2018-07-09T11:33:58.330Z,89
2018-07-09T11:35:00.379Z,95
2018-07-09T11:36:02.482Z,126
2018-07-09T11:37:04.488Z,132
2018-07-09T11:38:06.535Z,256
2018-07-09T11:39:08.592Z,335
2018-07-09T11:40:10.639Z,364
2018-07-09T11:41:12.688Z,333
2018-07-09T11:42:14.839Z,284
2018-07-09T11:43:16.789Z,172
2018-07-09T11:44:19.137Z,379
2018-07-09T11:45:21.185Z,341
2018-07-09T11:46:23.231Z,256
2018-07-09T11:47:25.279Z,325
2018-07-09T11:48:27.328Z,590
2018-07-09T11:49:29.371Z,592
2018-07-09T11:50:32.095Z,587
2018-07-09T11:51:34.143Z,582
2018-07-09T11:52:36.187Z,169
2018-07-09T11:53:38.237Z,567
2018-07-09T11:54:40.283Z,522
2018-07-09T11:55:42.640Z,559
2018-07-09T11:56:44.684Z,484
2018-07-09T11:57:50.621Z,452
2018-07-09T11:58:53.091Z,492
2018-07-09T11:59:55.076Z,413
2018-07-09T12:00:57.129Z,175
2018-07-09T12:02:05.581Z,145
2018-07-09T12:03:07.984Z,147
2018-07-09T12:04:10.032Z,167
2018-07-09T12:05:12.075Z,321
2018-07-09T12:06:14.123Z,164
2018-07-09T12:07:16.571Z,144
2018-07-09T12:08:18.619Z,161
2018-07-09T12:09:20.682Z,128
2018-07-09T12:10:23.022Z,128
2018-07-09T12:11:25.473Z,141
2018-07-09T12:12:27.458Z,341
2018-07-09T12:13:29.513Z,398
2018-07-09T12:14:31.562Z,265
2018-07-09T12:15:33.606Z,220
2018-07-09T12:16:36.236Z,162
2018-07-09T12:17:38.669Z,140
2018-07-09T12:18:41.008Z,131
2018-07-09T12:19:43.059Z,135
2018-07-09T12:20:45.399Z,141
2018-07-09T12:21:47.451Z,163
2018-07-09T12:22:49.495Z,263
2018-07-09T12:23:51.546Z,162
2018-07-09T12:24:53.886Z,174
2018-07-09T12:25:55.941Z,166
2018-07-09T12:26:57.993Z,181
2018-07-09T12:28:00.051Z,284
2018-07-09T12:29:02.180Z,313
2018-07-09T12:30:04.571Z,332
2018-07-09T12:31:07.202Z,170
2018-07-09T12:32:09.262Z,169
2018-07-09T12:33:11.311Z,176
2018-07-09T12:34:14.043Z,195
2018-07-09T12:35:16.097Z,249
2018-07-09T12:36:18.292Z,439
2018-07-09T12:37:20.190Z,260
2018-07-09T12:38:22.244Z,496
2018-07-09T12:39:24.281Z,512
2018-07-09T12:40:26.334Z,217
2018-07-09T12:41:28.662Z,232
2018-07-09T12:42:30.718Z,222
2018-07-09T12:43:32.764Z,208
2018-07-09T12:44:35.207Z,210
2018-07-09T12:45:37.536Z,182
2018-07-09T12:46:39.874Z,159
2018-07-09T12:47:41.906Z,121
2018-07-09T12:48:43.960Z,96
2018-07-09T12:49:46.813Z,85
2018-07-09T12:50:48.798Z,86
2018-07-09T12:51:50.838Z,98
2018-07-09T12:52:52.881Z,131
2018-07-09T12:53:54.930Z,133
2018-07-09T12:54:57.622Z,110
2018-07-09T12:56:00.196Z,89
2018-07-09T12:57:07.093Z,79
2018-07-09T12:58:12.240Z,70
2018-07-09T12:59:14.733Z,68
2018-07-09T13:00:17.090Z,69
2018-07-09T13:01:20.888Z,70
2018-07-09T13:02:23.151Z,72
2018-07-09T13:03:25.515Z,70
2018-07-09T13:04:27.787Z,67
2018-07-09T13:05:32.801Z,69
2018-07-09T13:06:35.292Z,79
2018-07-09T13:07:37.344Z,87
2018-07-09T13:08:39.409Z,85
2018-07-09T13:09:41.540Z,83
2018-07-09T13:10:43.589Z,87
2018-07-09T13:11:46.017Z,93
2018-07-09T13:12:51.248Z,104
2018-07-09T13:13:58.253Z,116
2018-07-09T13:15:01.663Z,143
2018-07-09T13:16:04.893Z,187
2018-07-09T13:17:11.933Z,187
2018-07-09T13:18:18.369Z,193
2018-07-09T13:19:27.035Z,176
2018-07-09T13:20:35.675Z,173
2018-07-09T13:21:43.778Z,187
2018-07-09T13:22:52.743Z,168
2018-07-09T13:23:58.368Z,145
2018-07-09T13:25:05.685Z,140
2018-07-09T13:26:09.959Z,132
2018-07-09T13:27:14.861Z,135
2018-07-09T13:28:22.863Z,144
2018-07-09T13:29:29.624Z,155
2018-07-09T13:30:37.382Z,182
2018-07-09T13:31:46.221Z,202
2018-07-09T13:32:52.573Z,186
2018-07-09T13:33:59.465Z,173
2018-07-09T13:35:08.435Z,148
2018-07-09T13:36:17.537Z,135
2018-07-09T13:37:25.233Z,139
2018-07-09T13:38:33.137Z,178
2018-07-09T13:39:41.285Z,151
2018-07-09T13:40:47.481Z,183
2018-07-09T13:41:56.194Z,215
2018-07-09T13:43:04.942Z,232
2018-07-09T13:44:14.674Z,167
2018-07-09T13:45:23.084Z,206
2018-07-09T13:46:29.677Z,219
2018-07-09T13:47:38.624Z,147
2018-07-09T13:48:44.450Z,188
2018-07-09T13:49:51.513Z,137
2018-07-09T13:50:57.380Z,116
2018-07-09T13:52:01.816Z,108
2018-07-09T13:53:10.413Z,108
2018-07-09T13:54:18.711Z,139
2018-07-09T13:55:22.909Z,127
2018-07-09T13:56:25.694Z,124
2018-07-09T13:57:30.023Z,125
2018-07-09T13:58:33.389Z,132
2018-07-09T13:59:38.992Z,124
2018-07-09T14:00:44.265Z,115
2018-07-09T14:01:52.381Z,118
2018-07-09T14:02:58.637Z,189
2018-07-09T14:04:04.775Z,186
2018-07-09T14:05:10.371Z,148
2018-07-09T14:06:13.832Z,197
2018-07-09T14:07:16.027Z,151
2018-07-09T14:08:19.722Z,158
2018-07-09T14:09:25.122Z,176
2018-07-09T14:10:32.071Z,154
2018-07-09T14:11:37.970Z,144
2018-07-09T14:12:43.572Z,135
2018-07-09T14:13:47.277Z,136
2018-07-09T14:14:50.210Z,124
2018-07-09T14:15:54.909Z,122
2018-07-09T14:17:00.000Z,104
2018-07-09T14:18:06.395Z,94
2018-07-09T14:19:11.046Z,89
2018-07-09T14:20:15.775Z,87
2018-07-09T14:21:21.516Z,86
2018-07-09T14:22:25.923Z,84
2018-07-09T14:23:32.544Z,83
2018-07-09T14:24:40.571Z,78
2018-07-09T14:25:48.182Z,73
2018-07-09T14:26:50.639Z,72
2018-07-09T14:27:56.882Z,73
2018-07-09T14:29:02.845Z,76
2018-07-09T14:30:08.216Z,85
2018-07-09T14:31:13.419Z,97
2018-07-09T14:32:18.877Z,103
2018-07-09T14:33:24.134Z,107
2018-07-09T14:34:30.165Z,110
2018-07-09T14:35:36.351Z,111
2018-07-09T14:36:39.656Z,112
2018-07-09T14:37:45.138Z,110
2018-07-09T14:38:48.025Z,106
2018-07-09T14:39:53.616Z,103
2018-07-09T14:40:58.247Z,102
2018-07-09T14:42:04.942Z,107
2018-07-09T14:43:12.084Z,111
2018-07-09T14:44:18.931Z,116
2018-07-09T14:45:25.054Z,172
2018-07-09T14:46:31.582Z,119
2018-07-09T14:47:39.075Z,113
2018-07-09T14:48:45.641Z,112
2018-07-09T14:49:51.904Z,153